Terminal Aerodrome Forecast
Issued by NWS

Home | Current Version | Previous Version | Text Only | Print | Product List | Glossary On
Versions: 1 2 3 4 5 6 7 8 9 10 11 12 13 14 15 16 17 18 19 20 21 22 23 24 25 26 27 28
000
FTUS46 KLOX 290800 AAB
TAFLAX
TAF AMD
KLAX 290844Z 2909/3012 VRB03KT P6SM SKC
     FM291000 10006KT 3SM BR OVC005
     FM291600 15006KT P6SM BKN012
     FM291900 22008KT P6SM SCT250
     FM300000 19008KT 5SM BR OVC015
     FM300800 11007KT P6SM OVC025=

USA.gov is the U.S. government's official web portal to all federal, state and local government web resources and services.